PDT,Max TemperatureF,Mean TemperatureF,Min TemperatureF,Max Dew PointF,MeanDew PointF,Min DewpointF,Max Humidity, Mean Humidity, Min Humidity, Max Sea Level PressureIn, Mean Sea Level PressureIn, Min Sea Level PressureIn, Max VisibilityMiles, Mean VisibilityMiles, Min VisibilityMiles, Max Wind SpeedMPH, Mean Wind SpeedMPH, Max Gust SpeedMPH,PrecipitationIn, CloudCover, Events, WindDirDegrees
2012-10-1,105,80,54,45,41,36,59,35,10,30.01,29.92,29.83,10,10,10,12,3,21,0.00,0,,112
2012-10-2,105,80,55,44,40,32,59,34,9,29.91,29.85,29.77,10,10,10,18,4,,0.00,0,,182
2012-10-3,91,72,52,54,45,37,86,52,17,30.01,29.91,29.84,10,10,10,16,6,22,0.00,0,,203
2012-10-4,78,63,47,53,51,46,100,72,43,30.12,30.07,30.01,10,7,0,22,6,25,0.00,2,Fog,213
2012-10-5,85,69,52,53,51,48,100,66,31,30.17,30.11,29.99,10,8,1,20,6,,0.00,3,,329
2012-10-6,84,67,50,53,50,44,93,59,25,30.05,29.97,29.87,10,10,10,15,5,21,0.00,0,,298
2012-10-7,83,65,47,50,47,43,80,56,31,30.01,29.94,29.86,10,10,10,15,5,,0.00,0,,303
2012-10-8,78,63,47,50,46,42,86,59,31,30.04,29.99,29.94,10,10,10,16,7,20,0.00,0,,296
2012-10-9,78,62,46,52,46,40,93,61,29,30.05,29.99,29.91,10,10,10,17,5,22,0.00,2,,230
2012-10-10,68,58,47,53,49,45,93,71,48,29.96,29.94,29.89,10,10,10,17,5,22,0.02,5,Rain,208
2012-10-11,61,56,51,53,51,50,93,84,75,29.98,29.93,29.89,10,10,7,12,5,20,0.01,7,Rain,264
2012-10-12,62,56,50,52,50,48,96,82,67,30.20,30.11,29.99,10,10,8,12,2,21,T,7,Rain,204
2012-10-13,74,60,46,51,49,45,100,71,41,30.29,30.21,30.13,10,10,6,20,7,25,0.00,3,,33
2012-10-14,84,65,45,52,49,43,93,63,33,30.20,30.12,30.02,10,9,5,13,4,60,0.00,0,,96
2012-10-15,86,67,47,54,50,45,93,62,30,30.07,30.00,29.90,10,10,7,15,4,18,0.00,0,,48
2012-10-16,90,69,48,60,53,46,93,63,32,29.99,29.91,29.81,10,10,10,16,6,20,0.00,0,,320
2012-10-17,91,71,50,56,46,39,96,57,17,29.90,29.85,29.78,10,10,10,16,5,21,0.00,0,,93
2012-10-18,89,69,49,62,51,42,90,57,24,30.03,29.96,29.90,10,10,10,17,5,21,0.00,0,,214
2012-10-19,86,72,57,60,58,54,97,67,37,30.07,29.98,29.86,10,10,6,14,4,,0.00,3,,346
2012-10-20,80,67,53,58,54,48,100,67,33,29.91,29.87,29.77,10,6,0,20,8,25,0.00,5,Fog,304
2012-10-21,73,62,50,47,42,28,83,52,20,29.96,29.89,29.84,10,10,10,13,6,,0.00,3,,301
2012-10-22,60,51,42,56,51,45,100,86,71,30.00,29.91,29.86,10,8,2,21,8,26,0.10,6,Rain,181
2012-10-23,65,52,39,47,42,38,100,73,46,30.06,30.01,29.95,10,10,10,14,4,22,0.00,2,,273
2012-10-24,69,52,35,46,39,34,92,62,31,30.19,30.12,30.04,10,10,10,18,6,28,0.00,1,,318
2012-10-25,75,61,47,50,43,40,86,60,33,30.22,30.16,30.09,10,10,10,13,3,30,0.00,3,,85
2012-10-26,78,60,41,47,38,31,100,60,19,30.19,30.12,30.04,10,10,10,20,5,24,0.00,0,,82
2012-10-27,83,63,42,42,37,32,67,44,21,30.06,30.00,29.91,10,10,10,16,5,21,0.00,0,,85
2012-10-28,87,65,43,45,37,27,76,44,12,30.04,29.98,29.91,10,10,10,9,3,,0.00,0,,119
2012-10-29,86,63,40,48,37,27,79,46,12,30.11,30.05,29.99,10,10,10,13,3,74,0.00,0,,183
2012-10-30,85,62,39,43,36,27,89,52,14,30.09,30.02,29.94,10,10,10,15,3,17,0.00,0,,206
2012-10-31,73,58,42,50,45,32,100,62,24,30.06,30.01,29.97,10,5,0,15,4,18,0.00,2,Fog,204